sensor_id;sensor_type;location;lat;lon;timestamp;temperature;humidity
67870;DHT22;54673;52.262;6.830;2022-12-18T00:01:25;15.20;42.30
67870;DHT22;54673;52.262;6.830;2022-12-18T00:03:53;15.20;42.40
67870;DHT22;54673;52.262;6.830;2022-12-18T00:06:19;15.10;42.30
67870;DHT22;54673;52.262;6.830;2022-12-18T00:08:46;15.20;42.40
67870;DHT22;54673;52.262;6.830;2022-12-18T00:11:14;15.10;42.30
67870;DHT22;54673;52.262;6.830;2022-12-18T00:13:40;15.10;42.30
67870;DHT22;54673;52.262;6.830;2022-12-18T00:16:09;15.10;42.20
67870;DHT22;54673;52.262;6.830;2022-12-18T00:18:35;15.00;42.20
67870;DHT22;54673;52.262;6.830;2022-12-18T00:21:02;15.10;42.20
67870;DHT22;54673;52.262;6.830;2022-12-18T00:23:30;15.00;42.10
67870;DHT22;54673;52.262;6.830;2022-12-18T00:25:59;15.00;42.20
67870;DHT22;54673;52.262;6.830;2022-12-18T00:28:25;15.00;42.10
67870;DHT22;54673;52.262;6.830;2022-12-18T00:30:51;15.00;42.20
67870;DHT22;54673;52.262;6.830;2022-12-18T00:33:17;15.00;42.10
67870;DHT22;54673;52.262;6.830;2022-12-18T00:35:43;15.00;42.10
67870;DHT22;54673;52.262;6.830;2022-12-18T00:38:08;14.90;42.10
67870;DHT22;54673;52.262;6.830;2022-12-18T00:40:34;14.90;42.10
67870;DHT22;54673;52.262;6.830;2022-12-18T00:43:00;14.90;42.00
67870;DHT22;54673;52.262;6.830;2022-12-18T00:45:27;14.90;42.00
67870;DHT22;54673;52.262;6.830;2022-12-18T00:47:54;14.90;42.00
67870;DHT22;54673;52.262;6.830;2022-12-18T00:50:21;14.80;42.00
67870;DHT22;54673;52.262;6.830;2022-12-18T00:52:47;14.80;41.90
67870;DHT22;54673;52.262;6.830;2022-12-18T00:55:13;14.80;42.00
67870;DHT22;54673;52.262;6.830;2022-12-18T00:57:39;14.80;41.90
67870;DHT22;54673;52.262;6.830;2022-12-18T01:00:06;14.80;41.90
67870;DHT22;54673;52.262;6.830;2022-12-18T01:02:33;14.80;41.90
67870;DHT22;54673;52.262;6.830;2022-12-18T01:04:59;14.80;41.90
67870;DHT22;54673;52.262;6.830;2022-12-18T01:07:24;14.80;41.90
67870;DHT22;54673;52.262;6.830;2022-12-18T01:09:50;14.70;41.80
67870;DHT22;54673;52.262;6.830;2022-12-18T01:12:15;14.70;41.70
67870;DHT22;54673;52.262;6.830;2022-12-18T01:14:41;14.70;41.90
67870;DHT22;54673;52.262;6.830;2022-12-18T01:17:07;14.70;41.80
67870;DHT22;54673;52.262;6.830;2022-12-18T01:19:32;14.70;41.80
67870;DHT22;54673;52.262;6.830;2022-12-18T01:21:58;14.60;41.80
67870;DHT22;54673;52.262;6.830;2022-12-18T01:24:24;14.60;41.70
67870;DHT22;54673;52.262;6.830;2022-12-18T01:26:49;14.70;41.80
67870;DHT22;54673;52.262;6.830;2022-12-18T01:29:15;14.60;41.70
67870;DHT22;54673;52.262;6.830;2022-12-18T01:31:41;14.60;41.70
67870;DHT22;54673;52.262;6.830;2022-12-18T01:34:06;14.60;41.70
67870;DHT22;54673;52.262;6.830;2022-12-18T01:36:34;14.50;41.70
67870;DHT22;54673;52.262;6.830;2022-12-18T01:39:03;14.60;41.70
67870;DHT22;54673;52.262;6.830;2022-12-18T01:41:30;14.50;41.60
67870;DHT22;54673;52.262;6.830;2022-12-18T01:44:53;14.50;41.60
67870;DHT22;54673;52.262;6.830;2022-12-18T01:49:56;14.50;41.60
67870;DHT22;54673;52.262;6.830;2022-12-18T01:52:22;14.50;41.60
67870;DHT22;54673;52.262;6.830;2022-12-18T01:54:50;14.40;41.50
67870;DHT22;54673;52.262;6.830;2022-12-18T01:57:16;14.40;41.50
67870;DHT22;54673;52.262;6.830;2022-12-18T01:59:45;14.40;41.60
67870;DHT22;54673;52.262;6.830;2022-12-18T02:02:14;14.40;41.50
67870;DHT22;54673;52.262;6.830;2022-12-18T02:04:41;14.40;41.60
67870;DHT22;54673;52.262;6.830;2022-12-18T02:09:46;14.40;41.50
67870;DHT22;54673;52.262;6.830;2022-12-18T02:12:21;14.40;41.50
67870;DHT22;54673;52.262;6.830;2022-12-18T02:15:12;14.30;41.40
67870;DHT22;54673;52.262;6.830;2022-12-18T02:18:14;14.30;41.40
67870;DHT22;54673;52.262;6.830;2022-12-18T02:20:48;14.30;41.50
67870;DHT22;54673;52.262;6.830;2022-12-18T02:23:49;14.30;41.40
67870;DHT22;54673;52.262;6.830;2022-12-18T02:28:38;14.30;41.40
67870;DHT22;54673;52.262;6.830;2022-12-18T02:31:08;14.20;41.40
67870;DHT22;54673;52.262;6.830;2022-12-18T02:33:36;14.30;41.40
67870;DHT22;54673;52.262;6.830;2022-12-18T02:36:03;14.20;41.30
67870;DHT22;54673;52.262;6.830;2022-12-18T02:38:30;14.20;41.30
67870;DHT22;54673;52.262;6.830;2022-12-18T02:40:57;14.20;41.30
67870;DHT22;54673;52.262;6.830;2022-12-18T02:43:23;14.20;41.30
67870;DHT22;54673;52.262;6.830;2022-12-18T02:45:57;14.20;41.30
67870;DHT22;54673;52.262;6.830;2022-12-18T02:48:28;14.20;41.30
67870;DHT22;54673;52.262;6.830;2022-12-18T02:51:08;14.10;42.10
67870;DHT22;54673;52.262;6.830;2022-12-18T02:56:43;14.10;41.20
67870;DHT22;54673;52.262;6.830;2022-12-18T02:59:19;14.10;41.20
67870;DHT22;54673;52.262;6.830;2022-12-18T03:01:53;14.10;41.20
67870;DHT22;54673;52.262;6.830;2022-12-18T03:04:41;14.10;41.20
67870;DHT22;54673;52.262;6.830;2022-12-18T03:07:18;14.10;41.20
67870;DHT22;54673;52.262;6.830;2022-12-18T03:09:48;14.10;41.10
67870;DHT22;54673;52.262;6.830;2022-12-18T03:12:31;14.10;41.10
67870;DHT22;54673;52.262;6.830;2022-12-18T03:17:25;14.00;41.00
67870;DHT22;54673;52.262;6.830;2022-12-18T03:19:54;14.00;41.10
67870;DHT22;54673;52.262;6.830;2022-12-18T03:22:23;14.00;41.00
67870;DHT22;54673;52.262;6.830;2022-12-18T03:24:53;14.00;41.10
67870;DHT22;54673;52.262;6.830;2022-12-18T03:27:20;14.00;41.50
67870;DHT22;54673;52.262;6.830;2022-12-18T03:29:52;14.00;41.10
67870;DHT22;54673;52.262;6.830;2022-12-18T03:32:25;14.00;41.00
67870;DHT22;54673;52.262;6.830;2022-12-18T03:34:53;14.00;41.00
67870;DHT22;54673;52.262;6.830;2022-12-18T03:37:20;14.00;41.10
67870;DHT22;54673;52.262;6.830;2022-12-18T03:39:46;13.90;41.00
67870;DHT22;54673;52.262;6.830;2022-12-18T03:47:41;13.90;40.90
67870;DHT22;54673;52.262;6.830;2022-12-18T03:50:30;13.90;40.90
67870;DHT22;54673;52.262;6.830;2022-12-18T03:53:28;13.90;40.90
67870;DHT22;54673;52.262;6.830;2022-12-18T03:55:56;13.90;40.90
67870;DHT22;54673;52.262;6.830;2022-12-18T03:58:25;13.90;40.90
67870;DHT22;54673;52.262;6.830;2022-12-18T04:00:58;13.80;40.80
67870;DHT22;54673;52.262;6.830;2022-12-18T04:03:26;13.80;41.60
67870;DHT22;54673;52.262;6.830;2022-12-18T04:05:54;13.80;40.70
67870;DHT22;54673;52.262;6.830;2022-12-18T04:08:21;13.80;40.80
67870;DHT22;54673;52.262;6.830;2022-12-18T04:10:47;13.80;40.80
67870;DHT22;54673;52.262;6.830;2022-12-18T04:13:22;13.80;40.70
67870;DHT22;54673;52.262;6.830;2022-12-18T04:15:48;13.80;40.70
67870;DHT22;54673;52.262;6.830;2022-12-18T04:18:13;13.80;40.70
67870;DHT22;54673;52.262;6.830;2022-12-18T04:20:39;13.80;40.70
67870;DHT22;54673;52.262;6.830;2022-12-18T04:23:04;13.80;40.70
67870;DHT22;54673;52.262;6.830;2022-12-18T04:25:30;13.80;40.70
67870;DHT22;54673;52.262;6.830;2022-12-18T04:27:56;13.70;40.60
67870;DHT22;54673;52.262;6.830;2022-12-18T04:30:21;13.70;40.60
67870;DHT22;54673;52.262;6.830;2022-12-18T04:32:47;13.70;40.50
67870;DHT22;54673;52.262;6.830;2022-12-18T04:35:12;13.70;40.60
67870;DHT22;54673;52.262;6.830;2022-12-18T04:37:38;13.70;40.60
67870;DHT22;54673;52.262;6.830;2022-12-18T04:40:04;13.70;40.60
67870;DHT22;54673;52.262;6.830;2022-12-18T04:42:30;13.70;40.50
67870;DHT22;54673;52.262;6.830;2022-12-18T04:44:56;13.70;40.60
67870;DHT22;54673;52.262;6.830;2022-12-18T04:47:21;13.70;40.60
67870;DHT22;54673;52.262;6.830;2022-12-18T04:49:47;13.70;40.50
67870;DHT22;54673;52.262;6.830;2022-12-18T04:52:13;13.70;40.50
67870;DHT22;54673;52.262;6.830;2022-12-18T04:54:38;13.60;40.50
67870;DHT22;54673;52.262;6.830;2022-12-18T04:57:04;13.60;40.40
67870;DHT22;54673;52.262;6.830;2022-12-18T04:59:30;13.60;40.40
67870;DHT22;54673;52.262;6.830;2022-12-18T05:01:55;13.60;40.30
67870;DHT22;54673;52.262;6.830;2022-12-18T05:04:21;13.60;40.40
67870;DHT22;54673;52.262;6.830;2022-12-18T05:06:47;13.60;40.30
67870;DHT22;54673;52.262;6.830;2022-12-18T05:09:12;13.60;40.40
67870;DHT22;54673;52.262;6.830;2022-12-18T05:11:38;13.60;40.30
67870;DHT22;54673;52.262;6.830;2022-12-18T05:14:03;13.60;40.30
67870;DHT22;54673;52.262;6.830;2022-12-18T05:16:29;13.60;40.30
67870;DHT22;54673;52.262;6.830;2022-12-18T05:18:55;13.60;40.30
67870;DHT22;54673;52.262;6.830;2022-12-18T05:21:20;13.60;40.30
67870;DHT22;54673;52.262;6.830;2022-12-18T05:23:46;13.60;40.30
67870;DHT22;54673;52.262;6.830;2022-12-18T05:26:16;13.60;40.30
67870;DHT22;54673;52.262;6.830;2022-12-18T05:28:42;13.50;40.40
67870;DHT22;54673;52.262;6.830;2022-12-18T05:31:08;13.50;40.30
67870;DHT22;54673;52.262;6.830;2022-12-18T05:33:34;13.60;40.30
67870;DHT22;54673;52.262;6.830;2022-12-18T05:36:02;13.50;40.20
67870;DHT22;54673;52.262;6.830;2022-12-18T05:38:29;13.50;40.20
67870;DHT22;54673;52.262;6.830;2022-12-18T05:40:55;13.50;40.20
67870;DHT22;54673;52.262;6.830;2022-12-18T05:43:22;13.50;40.20
67870;DHT22;54673;52.262;6.830;2022-12-18T05:45:49;13.50;40.20
67870;DHT22;54673;52.262;6.830;2022-12-18T05:48:16;13.50;40.20
67870;DHT22;54673;52.262;6.830;2022-12-18T05:50:43;13.40;40.20
67870;DHT22;54673;52.262;6.830;2022-12-18T05:53:11;13.40;40.10
67870;DHT22;54673;52.262;6.830;2022-12-18T05:55:39;13.40;40.10
67870;DHT22;54673;52.262;6.830;2022-12-18T05:58:07;13.40;40.10
67870;DHT22;54673;52.262;6.830;2022-12-18T06:00:35;13.40;40.10
67870;DHT22;54673;52.262;6.830;2022-12-18T06:03:01;13.40;40.10
67870;DHT22;54673;52.262;6.830;2022-12-18T06:05:27;13.40;40.10
67870;DHT22;54673;52.262;6.830;2022-12-18T06:07:53;13.40;40.10
67870;DHT22;54673;52.262;6.830;2022-12-18T06:10:19;13.40;40.00
67870;DHT22;54673;52.262;6.830;2022-12-18T06:12:45;13.40;40.10
67870;DHT22;54673;52.262;6.830;2022-12-18T06:15:11;13.40;40.00
67870;DHT22;54673;52.262;6.830;2022-12-18T06:17:37;13.40;40.10
67870;DHT22;54673;52.262;6.830;2022-12-18T06:20:03;13.40;40.00
67870;DHT22;54673;52.262;6.830;2022-12-18T06:22:31;13.40;40.00
67870;DHT22;54673;52.262;6.830;2022-12-18T06:24:57;13.30;40.00
67870;DHT22;54673;52.262;6.830;2022-12-18T06:27:23;13.30;39.90
67870;DHT22;54673;52.262;6.830;2022-12-18T06:29:49;13.30;39.90
67870;DHT22;54673;52.262;6.830;2022-12-18T06:32:14;13.30;39.90
67870;DHT22;54673;52.262;6.830;2022-12-18T06:34:40;13.30;40.00
67870;DHT22;54673;52.262;6.830;2022-12-18T06:37:06;13.30;39.90
67870;DHT22;54673;52.262;6.830;2022-12-18T06:39:31;13.30;39.90
67870;DHT22;54673;52.262;6.830;2022-12-18T06:41:57;13.30;39.90
67870;DHT22;54673;52.262;6.830;2022-12-18T06:44:23;13.30;39.90
67870;DHT22;54673;52.262;6.830;2022-12-18T06:46:49;13.30;39.90
67870;DHT22;54673;52.262;6.830;2022-12-18T06:49:14;13.40;39.90
67870;DHT22;54673;52.262;6.830;2022-12-18T06:51:42;13.30;39.90
67870;DHT22;54673;52.262;6.830;2022-12-18T06:54:08;13.30;39.90
67870;DHT22;54673;52.262;6.830;2022-12-18T06:56:34;13.30;39.80
67870;DHT22;54673;52.262;6.830;2022-12-18T06:59:00;13.30;39.90
67870;DHT22;54673;52.262;6.830;2022-12-18T07:01:26;13.20;39.80
67870;DHT22;54673;52.262;6.830;2022-12-18T07:03:53;13.20;39.80
67870;DHT22;54673;52.262;6.830;2022-12-18T07:06:22;13.20;39.70
67870;DHT22;54673;52.262;6.830;2022-12-18T07:08:49;13.20;39.70
67870;DHT22;54673;52.262;6.830;2022-12-18T07:11:16;13.20;39.70
67870;DHT22;54673;52.262;6.830;2022-12-18T07:13:41;13.20;39.70
67870;DHT22;54673;52.262;6.830;2022-12-18T07:16:09;13.20;39.70
67870;DHT22;54673;52.262;6.830;2022-12-18T07:18:35;13.20;39.70
67870;DHT22;54673;52.262;6.830;2022-12-18T07:21:06;13.20;39.80
67870;DHT22;54673;52.262;6.830;2022-12-18T07:23:33;13.20;39.70
67870;DHT22;54673;52.262;6.830;2022-12-18T07:26:03;13.20;39.90
67870;DHT22;54673;52.262;6.830;2022-12-18T07:28:29;13.20;39.70
67870;DHT22;54673;52.262;6.830;2022-12-18T07:30:55;13.10;39.60
67870;DHT22;54673;52.262;6.830;2022-12-18T07:33:21;13.10;39.60
67870;DHT22;54673;52.262;6.830;2022-12-18T07:35:46;13.10;39.60
67870;DHT22;54673;52.262;6.830;2022-12-18T07:38:12;13.10;39.60
67870;DHT22;54673;52.262;6.830;2022-12-18T07:40:37;13.10;39.60
67870;DHT22;54673;52.262;6.830;2022-12-18T07:43:03;13.20;39.70
67870;DHT22;54673;52.262;6.830;2022-12-18T07:45:29;13.10;40.50
67870;DHT22;54673;52.262;6.830;2022-12-18T07:47:56;13.10;39.60
67870;DHT22;54673;52.262;6.830;2022-12-18T07:50:22;13.10;39.60
67870;DHT22;54673;52.262;6.830;2022-12-18T07:52:47;13.10;39.70
67870;DHT22;54673;52.262;6.830;2022-12-18T07:55:13;13.10;39.60
67870;DHT22;54673;52.262;6.830;2022-12-18T07:57:39;13.10;39.60
67870;DHT22;54673;52.262;6.830;2022-12-18T08:00:05;13.10;39.60
67870;DHT22;54673;52.262;6.830;2022-12-18T08:02:31;13.10;39.70
67870;DHT22;54673;52.262;6.830;2022-12-18T08:04:57;13.10;40.60
67870;DHT22;54673;52.262;6.830;2022-12-18T08:07:23;13.10;39.60
67870;DHT22;54673;52.262;6.830;2022-12-18T08:09:49;13.00;39.60
67870;DHT22;54673;52.262;6.830;2022-12-18T08:12:14;13.10;39.70
67870;DHT22;54673;52.262;6.830;2022-12-18T08:14:40;13.10;39.70
67870;DHT22;54673;52.262;6.830;2022-12-18T08:17:06;13.10;39.70
67870;DHT22;54673;52.262;6.830;2022-12-18T08:19:31;13.10;39.70
67870;DHT22;54673;52.262;6.830;2022-12-18T08:21:57;13.10;39.70
67870;DHT22;54673;52.262;6.830;2022-12-18T08:24:23;13.10;39.70
67870;DHT22;54673;52.262;6.830;2022-12-18T08:26:48;13.10;39.70
67870;DHT22;54673;52.262;6.830;2022-12-18T08:29:14;13.10;39.80
67870;DHT22;54673;52.262;6.830;2022-12-18T08:31:40;13.10;39.60
67870;DHT22;54673;52.262;6.830;2022-12-18T08:34:06;13.10;39.60
67870;DHT22;54673;52.262;6.830;2022-12-18T08:36:31;13.10;39.60
67870;DHT22;54673;52.262;6.830;2022-12-18T08:38:57;14.30;40.40
67870;DHT22;54673;52.262;6.830;2022-12-18T08:41:23;13.00;39.60
67870;DHT22;54673;52.262;6.830;2022-12-18T08:43:49;13.10;39.70
67870;DHT22;54673;52.262;6.830;2022-12-18T08:46:41;13.10;39.60
67870;DHT22;54673;52.262;6.830;2022-12-18T08:49:08;13.10;39.60
67870;DHT22;54673;52.262;6.830;2022-12-18T08:51:34;13.00;39.60
67870;DHT22;54673;52.262;6.830;2022-12-18T08:54:01;13.00;39.60
67870;DHT22;54673;52.262;6.830;2022-12-18T08:56:27;13.10;39.70
67870;DHT22;54673;52.262;6.830;2022-12-18T08:58:54;13.10;39.70
67870;DHT22;54673;52.262;6.830;2022-12-18T09:01:20;13.10;39.70
67870;DHT22;54673;52.262;6.830;2022-12-18T09:03:46;13.10;39.70
67870;DHT22;54673;52.262;6.830;2022-12-18T09:06:16;13.10;39.70
67870;DHT22;54673;52.262;6.830;2022-12-18T09:08:43;13.10;39.70
67870;DHT22;54673;52.262;6.830;2022-12-18T09:11:13;13.10;39.70
67870;DHT22;54673;52.262;6.830;2022-12-18T09:13:39;13.10;39.70
67870;DHT22;54673;52.262;6.830;2022-12-18T09:16:05;13.10;39.70
67870;DHT22;54673;52.262;6.830;2022-12-18T09:18:31;13.10;39.80
67870;DHT22;54673;52.262;6.830;2022-12-18T09:20:56;13.10;39.80
67870;DHT22;54673;52.262;6.830;2022-12-18T09:23:22;13.10;39.80
67870;DHT22;54673;52.262;6.830;2022-12-18T09:25:48;13.10;39.80
67870;DHT22;54673;52.262;6.830;2022-12-18T09:28:17;13.10;39.80
67870;DHT22;54673;52.262;6.830;2022-12-18T09:30:46;13.10;39.80
67870;DHT22;54673;52.262;6.830;2022-12-18T09:33:11;13.10;39.80
67870;DHT22;54673;52.262;6.830;2022-12-18T09:35:38;13.10;39.80
67870;DHT22;54673;52.262;6.830;2022-12-18T09:38:04;13.10;39.80
67870;DHT22;54673;52.262;6.830;2022-12-18T09:41:13;13.10;39.80
67870;DHT22;54673;52.262;6.830;2022-12-18T09:43:42;13.10;39.80
67870;DHT22;54673;52.262;6.830;2022-12-18T09:46:11;13.10;39.90
67870;DHT22;54673;52.262;6.830;2022-12-18T09:48:44;13.20;39.90
67870;DHT22;54673;52.262;6.830;2022-12-18T09:51:18;13.10;39.90
67870;DHT22;54673;52.262;6.830;2022-12-18T09:53:47;13.10;40.00
67870;DHT22;54673;52.262;6.830;2022-12-18T09:56:20;13.10;40.00
67870;DHT22;54673;52.262;6.830;2022-12-18T09:58:59;13.20;40.00
67870;DHT22;54673;52.262;6.830;2022-12-18T10:01:27;13.10;40.00
67870;DHT22;54673;52.262;6.830;2022-12-18T10:03:54;13.10;40.00
67870;DHT22;54673;52.262;6.830;2022-12-18T10:20:27;13.30;41.50
67870;DHT22;54673;52.262;6.830;2022-12-18T10:25:53;13.50;42.00
67870;DHT22;54673;52.262;6.830;2022-12-18T10:28:21;13.60;42.10
67870;DHT22;54673;52.262;6.830;2022-12-18T10:30:48;13.70;42.10
67870;DHT22;54673;52.262;6.830;2022-12-18T10:33:20;13.80;42.20
67870;DHT22;54673;52.262;6.830;2022-12-18T10:35:49;13.90;42.30
67870;DHT22;54673;52.262;6.830;2022-12-18T10:40:55;14.10;42.30
67870;DHT22;54673;52.262;6.830;2022-12-18T10:43:32;14.20;42.20
67870;DHT22;54673;52.262;6.830;2022-12-18T10:48:54;14.50;42.10
67870;DHT22;54673;52.262;6.830;2022-12-18T10:51:23;14.60;42.20
67870;DHT22;54673;52.262;6.830;2022-12-18T10:56:41;14.80;42.40
67870;DHT22;54673;52.262;6.830;2022-12-18T10:59:09;15.00;42.50
67870;DHT22;54673;52.262;6.830;2022-12-18T11:01:57;15.10;42.40
67870;DHT22;54673;52.262;6.830;2022-12-18T11:04:24;15.20;42.40
67870;DHT22;54673;52.262;6.830;2022-12-18T11:07:06;15.30;42.30
67870;DHT22;54673;52.262;6.830;2022-12-18T11:09:37;15.40;42.20
67870;DHT22;54673;52.262;6.830;2022-12-18T11:12:18;15.50;42.20
67870;DHT22;54673;52.262;6.830;2022-12-18T11:17:30;15.70;42.10
67870;DHT22;54673;52.262;6.830;2022-12-18T11:20:05;15.80;41.90
67870;DHT22;54673;52.262;6.830;2022-12-18T11:22:34;15.90;42.10
67870;DHT22;54673;52.262;6.830;2022-12-18T11:25:03;15.90;41.90
67870;DHT22;54673;52.262;6.830;2022-12-18T11:27:31;16.00;41.80
67870;DHT22;54673;52.262;6.830;2022-12-18T11:30:23;16.00;41.80
67870;DHT22;54673;52.262;6.830;2022-12-18T11:32:53;16.00;41.80
67870;DHT22;54673;52.262;6.830;2022-12-18T11:35:30;16.00;41.70
67870;DHT22;54673;52.262;6.830;2022-12-18T11:38:02;16.00;41.80
67870;DHT22;54673;52.262;6.830;2022-12-18T11:40:37;16.10;41.70
67870;DHT22;54673;52.262;6.830;2022-12-18T11:43:25;16.10;41.60
67870;DHT22;54673;52.262;6.830;2022-12-18T11:45:59;16.10;41.70
67870;DHT22;54673;52.262;6.830;2022-12-18T11:48:30;16.10;41.70
67870;DHT22;54673;52.262;6.830;2022-12-18T11:51:00;16.10;41.60
67870;DHT22;54673;52.262;6.830;2022-12-18T11:53:27;16.10;41.50
67870;DHT22;54673;52.262;6.830;2022-12-18T12:01:50;16.20;41.50
67870;DHT22;54673;52.262;6.830;2022-12-18T12:04:42;16.30;41.50
67870;DHT22;54673;52.262;6.830;2022-12-18T12:07:38;16.20;41.40
67870;DHT22;54673;52.262;6.830;2022-12-18T12:18:31;16.30;41.20
67870;DHT22;54673;52.262;6.830;2022-12-18T12:21:03;16.40;41.30
67870;DHT22;54673;52.262;6.830;2022-12-18T12:26:17;16.40;41.20
67870;DHT22;54673;52.262;6.830;2022-12-18T12:29:01;16.40;41.10
67870;DHT22;54673;52.262;6.830;2022-12-18T12:37:11;16.50;40.90
67870;DHT22;54673;52.262;6.830;2022-12-18T12:39:42;16.50;40.80
67870;DHT22;54673;52.262;6.830;2022-12-18T12:42:49;16.60;41.00
67870;DHT22;54673;52.262;6.830;2022-12-18T12:48:02;16.50;40.60
67870;DHT22;54673;52.262;6.830;2022-12-18T12:50:33;16.50;40.60
67870;DHT22;54673;52.262;6.830;2022-12-18T12:53:01;16.40;40.50
67870;DHT22;54673;52.262;6.830;2022-12-18T12:55:30;16.30;40.60
67870;DHT22;54673;52.262;6.830;2022-12-18T12:58:16;16.30;40.50
67870;DHT22;54673;52.262;6.830;2022-12-18T13:00:59;16.20;40.50
67870;DHT22;54673;52.262;6.830;2022-12-18T13:06:02;16.10;40.50
67870;DHT22;54673;52.262;6.830;2022-12-18T13:08:34;16.10;41.50
67870;DHT22;54673;52.262;6.830;2022-12-18T13:11:31;16.00;40.50
67870;DHT22;54673;52.262;6.830;2022-12-18T13:16:52;15.90;40.60
67870;DHT22;54673;52.262;6.830;2022-12-18T13:19:37;15.90;40.60
67870;DHT22;54673;52.262;6.830;2022-12-18T13:22:03;15.90;40.60
67870;DHT22;54673;52.262;6.830;2022-12-18T13:24:30;15.80;40.50
67870;DHT22;54673;52.262;6.830;2022-12-18T13:26:57;15.80;41.50
67870;DHT22;54673;52.262;6.830;2022-12-18T13:29:43;15.70;40.60
67870;DHT22;54673;52.262;6.830;2022-12-18T13:32:24;15.70;40.50
67870;DHT22;54673;52.262;6.830;2022-12-18T13:37:54;15.60;40.70
67870;DHT22;54673;52.262;6.830;2022-12-18T13:45:47;15.50;40.60
67870;DHT22;54673;52.262;6.830;2022-12-18T13:48:21;15.50;41.20
67870;DHT22;54673;52.262;6.830;2022-12-18T13:51:00;15.50;41.60
67870;DHT22;54673;52.262;6.830;2022-12-18T13:53:42;15.50;42.10
67870;DHT22;54673;52.262;6.830;2022-12-18T13:56:08;15.60;42.60
67870;DHT22;54673;52.262;6.830;2022-12-18T13:58:34;15.70;43.80
67870;DHT22;54673;52.262;6.830;2022-12-18T14:01:00;15.90;43.10
67870;DHT22;54673;52.262;6.830;2022-12-18T14:03:28;16.10;43.20
67870;DHT22;54673;52.262;6.830;2022-12-18T14:06:05;16.20;43.20
67870;DHT22;54673;52.262;6.830;2022-12-18T14:08:42;16.30;43.20
67870;DHT22;54673;52.262;6.830;2022-12-18T14:11:22;16.40;43.10
67870;DHT22;54673;52.262;6.830;2022-12-18T14:13:49;16.60;43.00
67870;DHT22;54673;52.262;6.830;2022-12-18T14:16:16;16.70;43.10
67870;DHT22;54673;52.262;6.830;2022-12-18T14:18:55;16.70;42.90
67870;DHT22;54673;52.262;6.830;2022-12-18T14:21:29;16.80;42.80
67870;DHT22;54673;52.262;6.830;2022-12-18T14:26:33;17.00;42.80
67870;DHT22;54673;52.262;6.830;2022-12-18T14:31:45;17.10;42.80
67870;DHT22;54673;52.262;6.830;2022-12-18T14:34:17;17.20;42.80
67870;DHT22;54673;52.262;6.830;2022-12-18T14:36:52;17.20;42.80
67870;DHT22;54673;52.262;6.830;2022-12-18T14:39:20;17.30;42.60
67870;DHT22;54673;52.262;6.830;2022-12-18T14:41:48;17.30;42.60
67870;DHT22;54673;52.262;6.830;2022-12-18T14:44:14;17.30;42.50
67870;DHT22;54673;52.262;6.830;2022-12-18T14:46:45;17.40;42.50
67870;DHT22;54673;52.262;6.830;2022-12-18T14:49:27;17.40;42.40
67870;DHT22;54673;52.262;6.830;2022-12-18T14:52:24;17.50;42.50
67870;DHT22;54673;52.262;6.830;2022-12-18T14:54:52;17.50;42.40
67870;DHT22;54673;52.262;6.830;2022-12-18T14:57:25;17.60;42.30
67870;DHT22;54673;52.262;6.830;2022-12-18T14:59:55;17.60;42.30
67870;DHT22;54673;52.262;6.830;2022-12-18T15:02:28;17.70;42.00
67870;DHT22;54673;52.262;6.830;2022-12-18T15:05:14;17.70;41.80
67870;DHT22;54673;52.262;6.830;2022-12-18T15:07:52;17.60;41.70
67870;DHT22;54673;52.262;6.830;2022-12-18T15:10:24;17.60;41.70
67870;DHT22;54673;52.262;6.830;2022-12-18T15:20:59;17.30;41.60
67870;DHT22;54673;52.262;6.830;2022-12-18T15:23:33;17.30;41.70
67870;DHT22;54673;52.262;6.830;2022-12-18T15:26:00;17.20;41.60
67870;DHT22;54673;52.262;6.830;2022-12-18T15:33:41;17.00;41.70
67870;DHT22;54673;52.262;6.830;2022-12-18T15:36:12;17.00;41.70
67870;DHT22;54673;52.262;6.830;2022-12-18T15:38:38;16.90;41.70
67870;DHT22;54673;52.262;6.830;2022-12-18T15:41:04;16.90;41.70
67870;DHT22;54673;52.262;6.830;2022-12-18T15:43:30;16.90;41.80
67870;DHT22;54673;52.262;6.830;2022-12-18T15:46:04;16.80;41.80
67870;DHT22;54673;52.262;6.830;2022-12-18T15:48:37;16.80;41.70
67870;DHT22;54673;52.262;6.830;2022-12-18T15:51:05;16.80;41.80
67870;DHT22;54673;52.262;6.830;2022-12-18T15:53:34;16.70;41.80
67870;DHT22;54673;52.262;6.830;2022-12-18T15:55:59;16.70;41.80
67870;DHT22;54673;52.262;6.830;2022-12-18T15:58:43;16.70;41.80
67870;DHT22;54673;52.262;6.830;2022-12-18T16:01:09;16.70;41.80
67870;DHT22;54673;52.262;6.830;2022-12-18T16:03:36;16.70;41.70
67870;DHT22;54673;52.262;6.830;2022-12-18T16:06:01;16.60;41.70
67870;DHT22;54673;52.262;6.830;2022-12-18T16:08:28;16.60;42.00
67870;DHT22;54673;52.262;6.830;2022-12-18T16:10:55;16.60;41.60
67870;DHT22;54673;52.262;6.830;2022-12-18T16:13:21;16.60;41.60
67870;DHT22;54673;52.262;6.830;2022-12-18T16:15:48;16.50;41.50
67870;DHT22;54673;52.262;6.830;2022-12-18T16:18:13;16.50;42.40
67870;DHT22;54673;52.262;6.830;2022-12-18T16:20:39;16.50;41.50
67870;DHT22;54673;52.262;6.830;2022-12-18T16:23:05;16.50;41.50
67870;DHT22;54673;52.262;6.830;2022-12-18T16:25:31;16.50;41.50
67870;DHT22;54673;52.262;6.830;2022-12-18T16:27:57;16.50;41.50
67870;DHT22;54673;52.262;6.830;2022-12-18T16:30:25;16.50;41.50
67870;DHT22;54673;52.262;6.830;2022-12-18T16:32:57;16.50;41.50
67870;DHT22;54673;52.262;6.830;2022-12-18T16:35:25;16.50;41.50
67870;DHT22;54673;52.262;6.830;2022-12-18T16:37:50;16.50;41.50
67870;DHT22;54673;52.262;6.830;2022-12-18T16:40:17;16.50;41.50
67870;DHT22;54673;52.262;6.830;2022-12-18T16:42:44;16.50;41.40
67870;DHT22;54673;52.262;6.830;2022-12-18T16:45:13;16.50;41.50
67870;DHT22;54673;52.262;6.830;2022-12-18T16:47:39;16.50;41.40
67870;DHT22;54673;52.262;6.830;2022-12-18T16:50:05;16.50;41.40
67870;DHT22;54673;52.262;6.830;2022-12-18T16:52:31;16.50;41.40
67870;DHT22;54673;52.262;6.830;2022-12-18T16:54:57;16.40;41.30
67870;DHT22;54673;52.262;6.830;2022-12-18T16:57:23;16.50;41.30
67870;DHT22;54673;52.262;6.830;2022-12-18T16:59:48;16.40;41.20
67870;DHT22;54673;52.262;6.830;2022-12-18T17:02:16;16.40;41.30
67870;DHT22;54673;52.262;6.830;2022-12-18T17:04:43;16.40;41.20
67870;DHT22;54673;52.262;6.830;2022-12-18T17:07:09;16.40;41.20
67870;DHT22;54673;52.262;6.830;2022-12-18T17:09:35;16.40;42.00
67870;DHT22;54673;52.262;6.830;2022-12-18T17:12:00;16.40;41.10
67870;DHT22;54673;52.262;6.830;2022-12-18T17:14:26;16.50;41.10
67870;DHT22;54673;52.262;6.830;2022-12-18T17:16:53;16.40;41.00
67870;DHT22;54673;52.262;6.830;2022-12-18T17:19:19;16.50;41.10
67870;DHT22;54673;52.262;6.830;2022-12-18T17:21:48;16.40;41.10
67870;DHT22;54673;52.262;6.830;2022-12-18T17:24:14;16.40;41.10
67870;DHT22;54673;52.262;6.830;2022-12-18T17:26:40;16.40;41.10
67870;DHT22;54673;52.262;6.830;2022-12-18T17:29:06;16.40;41.10